sensor_id;sensor_type;location;lat;lon;timestamp;temperature;humidity
36586;DHT22;22591;48.314;11.562;2022-08-01T00:01:23;20.90;91.00
36586;DHT22;22591;48.314;11.562;2022-08-01T00:03:48;20.90;91.20
36586;DHT22;22591;48.314;11.562;2022-08-01T00:06:14;20.90;91.30
36586;DHT22;22591;48.314;11.562;2022-08-01T00:08:39;20.80;91.40
36586;DHT22;22591;48.314;11.562;2022-08-01T00:11:05;20.70;91.90
36586;DHT22;22591;48.314;11.562;2022-08-01T00:13:31;20.60;91.80
36586;DHT22;22591;48.314;11.562;2022-08-01T00:15:56;20.60;91.90
36586;DHT22;22591;48.314;11.562;2022-08-01T00:18:22;20.60;91.80
36586;DHT22;22591;48.314;11.562;2022-08-01T00:20:47;20.50;91.80
36586;DHT22;22591;48.314;11.562;2022-08-01T00:23:13;20.50;91.70
36586;DHT22;22591;48.314;11.562;2022-08-01T00:25:39;20.50;91.50
36586;DHT22;22591;48.314;11.562;2022-08-01T00:28:04;20.50;91.40
36586;DHT22;22591;48.314;11.562;2022-08-01T00:30:34;20.50;91.40
36586;DHT22;22591;48.314;11.562;2022-08-01T00:32:59;20.50;91.20
36586;DHT22;22591;48.314;11.562;2022-08-01T00:35:25;20.50;91.00
36586;DHT22;22591;48.314;11.562;2022-08-01T00:37:50;20.50;91.10
36586;DHT22;22591;48.314;11.562;2022-08-01T00:40:16;20.50;91.10
36586;DHT22;22591;48.314;11.562;2022-08-01T00:42:42;20.50;91.10
36586;DHT22;22591;48.314;11.562;2022-08-01T00:45:08;20.40;91.10
36586;DHT22;22591;48.314;11.562;2022-08-01T00:47:34;20.40;91.10
36586;DHT22;22591;48.314;11.562;2022-08-01T00:49:59;20.30;91.30
36586;DHT22;22591;48.314;11.562;2022-08-01T00:52:25;20.30;91.30
36586;DHT22;22591;48.314;11.562;2022-08-01T00:54:51;20.30;91.40
36586;DHT22;22591;48.314;11.562;2022-08-01T00:57:16;20.20;91.50
36586;DHT22;22591;48.314;11.562;2022-08-01T00:59:42;20.10;91.70
36586;DHT22;22591;48.314;11.562;2022-08-01T01:02:08;20.10;91.90
36586;DHT22;22591;48.314;11.562;2022-08-01T01:04:33;20.00;91.90
36586;DHT22;22591;48.314;11.562;2022-08-01T01:12:47;19.80;92.80
36586;DHT22;22591;48.314;11.562;2022-08-01T01:18:17;19.60;93.00
36586;DHT22;22591;48.314;11.562;2022-08-01T01:20:51;19.50;93.70
36586;DHT22;22591;48.314;11.562;2022-08-01T01:31:26;19.10;94.70
36586;DHT22;22591;48.314;11.562;2022-08-01T01:33:54;19.00;94.80
36586;DHT22;22591;48.314;11.562;2022-08-01T01:36:21;18.90;95.20
36586;DHT22;22591;48.314;11.562;2022-08-01T01:38:51;18.90;95.30
36586;DHT22;22591;48.314;11.562;2022-08-01T01:41:18;18.90;95.50
36586;DHT22;22591;48.314;11.562;2022-08-01T01:43:45;19.00;95.50
36586;DHT22;22591;48.314;11.562;2022-08-01T01:46:13;19.00;95.40
36586;DHT22;22591;48.314;11.562;2022-08-01T01:48:43;19.00;95.40
36586;DHT22;22591;48.314;11.562;2022-08-01T01:51:10;19.00;95.40
36586;DHT22;22591;48.314;11.562;2022-08-01T01:53:37;19.00;95.50
36586;DHT22;22591;48.314;11.562;2022-08-01T01:56:04;19.00;95.50
36586;DHT22;22591;48.314;11.562;2022-08-01T01:58:32;19.00;95.60
36586;DHT22;22591;48.314;11.562;2022-08-01T02:00:58;19.00;95.50
36586;DHT22;22591;48.314;11.562;2022-08-01T02:03:26;19.00;95.70
36586;DHT22;22591;48.314;11.562;2022-08-01T02:05:53;19.00;95.70
36586;DHT22;22591;48.314;11.562;2022-08-01T02:08:20;18.90;95.80
36586;DHT22;22591;48.314;11.562;2022-08-01T02:10:46;18.90;95.90
36586;DHT22;22591;48.314;11.562;2022-08-01T02:13:34;18.90;95.90
36586;DHT22;22591;48.314;11.562;2022-08-01T02:16:01;18.90;96.10
36586;DHT22;22591;48.314;11.562;2022-08-01T02:18:28;18.90;96.20
36586;DHT22;22591;48.314;11.562;2022-08-01T02:20:54;18.90;96.30
36586;DHT22;22591;48.314;11.562;2022-08-01T02:23:22;18.90;96.30
36586;DHT22;22591;48.314;11.562;2022-08-01T02:25:50;18.90;96.40
36586;DHT22;22591;48.314;11.562;2022-08-01T02:28:25;18.90;96.30
36586;DHT22;22591;48.314;11.562;2022-08-01T02:30:56;18.90;96.40
36586;DHT22;22591;48.314;11.562;2022-08-01T02:33:38;18.90;96.50
36586;DHT22;22591;48.314;11.562;2022-08-01T02:36:06;18.90;96.60
36586;DHT22;22591;48.314;11.562;2022-08-01T02:38:35;18.80;96.80
36586;DHT22;22591;48.314;11.562;2022-08-01T02:41:05;18.80;96.70
36586;DHT22;22591;48.314;11.562;2022-08-01T02:43:32;18.80;96.90
36586;DHT22;22591;48.314;11.562;2022-08-01T02:46:01;18.80;96.80
36586;DHT22;22591;48.314;11.562;2022-08-01T02:48:28;18.70;96.90
36586;DHT22;22591;48.314;11.562;2022-08-01T02:50:58;18.70;96.90
36586;DHT22;22591;48.314;11.562;2022-08-01T02:53:26;18.80;96.80
36586;DHT22;22591;48.314;11.562;2022-08-01T02:55:53;18.70;96.70
36586;DHT22;22591;48.314;11.562;2022-08-01T02:58:20;18.80;96.80
36586;DHT22;22591;48.314;11.562;2022-08-01T03:00:49;18.70;96.70
36586;DHT22;22591;48.314;11.562;2022-08-01T03:03:15;18.80;96.80
36586;DHT22;22591;48.314;11.562;2022-08-01T03:05:43;18.70;96.90
36586;DHT22;22591;48.314;11.562;2022-08-01T03:08:10;18.70;96.90
36586;DHT22;22591;48.314;11.562;2022-08-01T03:10:38;18.60;97.00
36586;DHT22;22591;48.314;11.562;2022-08-01T03:13:07;18.60;97.20
36586;DHT22;22591;48.314;11.562;2022-08-01T03:15:35;18.60;97.30
36586;DHT22;22591;48.314;11.562;2022-08-01T03:18:05;18.60;97.30
36586;DHT22;22591;48.314;11.562;2022-08-01T03:20:33;18.60;97.30
36586;DHT22;22591;48.314;11.562;2022-08-01T03:23:03;18.60;97.40
36586;DHT22;22591;48.314;11.562;2022-08-01T03:25:31;18.50;97.50
36586;DHT22;22591;48.314;11.562;2022-08-01T03:28:00;18.50;97.50
36586;DHT22;22591;48.314;11.562;2022-08-01T03:30:27;18.60;97.60
36586;DHT22;22591;48.314;11.562;2022-08-01T03:32:53;18.50;97.70
36586;DHT22;22591;48.314;11.562;2022-08-01T03:35:20;18.50;97.90
36586;DHT22;22591;48.314;11.562;2022-08-01T03:37:52;18.40;98.00
36586;DHT22;22591;48.314;11.562;2022-08-01T03:40:37;18.40;98.00
36586;DHT22;22591;48.314;11.562;2022-08-01T03:43:07;18.40;98.10
36586;DHT22;22591;48.314;11.562;2022-08-01T03:45:40;18.40;98.20
36586;DHT22;22591;48.314;11.562;2022-08-01T03:48:14;18.40;98.30
36586;DHT22;22591;48.314;11.562;2022-08-01T03:50:44;18.40;98.40
36586;DHT22;22591;48.314;11.562;2022-08-01T03:53:12;18.40;98.40
36586;DHT22;22591;48.314;11.562;2022-08-01T03:55:39;18.40;98.40
36586;DHT22;22591;48.314;11.562;2022-08-01T03:58:06;18.40;98.20
36586;DHT22;22591;48.314;11.562;2022-08-01T04:00:33;18.40;98.30
36586;DHT22;22591;48.314;11.562;2022-08-01T04:03:00;18.50;98.30
36586;DHT22;22591;48.314;11.562;2022-08-01T04:05:26;18.40;98.20
36586;DHT22;22591;48.314;11.562;2022-08-01T04:07:52;18.50;98.30
36586;DHT22;22591;48.314;11.562;2022-08-01T04:10:25;18.50;98.20
36586;DHT22;22591;48.314;11.562;2022-08-01T04:12:51;18.60;98.10
36586;DHT22;22591;48.314;11.562;2022-08-01T04:15:17;18.70;97.90
36586;DHT22;22591;48.314;11.562;2022-08-01T04:17:43;18.70;97.70
36586;DHT22;22591;48.314;11.562;2022-08-01T04:20:09;18.80;97.60
36586;DHT22;22591;48.314;11.562;2022-08-01T04:22:36;18.80;97.50
36586;DHT22;22591;48.314;11.562;2022-08-01T04:25:07;19.00;97.20
36586;DHT22;22591;48.314;11.562;2022-08-01T04:27:37;19.10;96.90
36586;DHT22;22591;48.314;11.562;2022-08-01T04:30:04;19.10;96.70
36586;DHT22;22591;48.314;11.562;2022-08-01T04:32:33;19.20;96.40
36586;DHT22;22591;48.314;11.562;2022-08-01T04:35:04;19.20;96.30
36586;DHT22;22591;48.314;11.562;2022-08-01T04:37:30;19.30;96.10
36586;DHT22;22591;48.314;11.562;2022-08-01T04:39:57;19.40;96.00
36586;DHT22;22591;48.314;11.562;2022-08-01T04:42:24;19.50;95.70
36586;DHT22;22591;48.314;11.562;2022-08-01T04:44:50;19.60;95.20
36586;DHT22;22591;48.314;11.562;2022-08-01T04:47:16;19.70;95.10
36586;DHT22;22591;48.314;11.562;2022-08-01T04:49:42;19.80;95.00
36586;DHT22;22591;48.314;11.562;2022-08-01T04:52:08;19.90;94.80
36586;DHT22;22591;48.314;11.562;2022-08-01T04:54:35;19.80;94.60
36586;DHT22;22591;48.314;11.562;2022-08-01T04:57:05;19.90;94.50
36586;DHT22;22591;48.314;11.562;2022-08-01T04:59:32;19.90;94.30
36586;DHT22;22591;48.314;11.562;2022-08-01T05:02:08;19.90;94.50
36586;DHT22;22591;48.314;11.562;2022-08-01T05:04:34;19.80;94.60
36586;DHT22;22591;48.314;11.562;2022-08-01T05:07:00;19.80;94.60
36586;DHT22;22591;48.314;11.562;2022-08-01T05:09:26;19.90;94.50
36586;DHT22;22591;48.314;11.562;2022-08-01T05:11:52;19.90;94.50
36586;DHT22;22591;48.314;11.562;2022-08-01T05:14:17;19.90;94.40
36586;DHT22;22591;48.314;11.562;2022-08-01T05:16:44;19.90;94.40
36586;DHT22;22591;48.314;11.562;2022-08-01T05:19:10;20.00;94.30
36586;DHT22;22591;48.314;11.562;2022-08-01T05:21:35;20.00;94.50
36586;DHT22;22591;48.314;11.562;2022-08-01T05:24:01;19.90;94.60
36586;DHT22;22591;48.314;11.562;2022-08-01T05:26:27;19.90;94.50
36586;DHT22;22591;48.314;11.562;2022-08-01T05:28:53;19.80;94.50
36586;DHT22;22591;48.314;11.562;2022-08-01T05:31:18;19.90;94.50
36586;DHT22;22591;48.314;11.562;2022-08-01T05:33:44;19.90;94.40
36586;DHT22;22591;48.314;11.562;2022-08-01T05:36:09;20.10;94.40
36586;DHT22;22591;48.314;11.562;2022-08-01T05:38:35;20.30;94.20
36586;DHT22;22591;48.314;11.562;2022-08-01T05:41:01;20.50;93.90
36586;DHT22;22591;48.314;11.562;2022-08-01T05:43:26;20.60;93.60
36586;DHT22;22591;48.314;11.562;2022-08-01T05:45:52;20.70;93.40
36586;DHT22;22591;48.314;11.562;2022-08-01T05:48:17;20.80;92.90
36586;DHT22;22591;48.314;11.562;2022-08-01T05:50:43;21.00;92.80
36586;DHT22;22591;48.314;11.562;2022-08-01T05:53:09;21.10;92.70
36586;DHT22;22591;48.314;11.562;2022-08-01T05:55:35;21.30;92.30
36586;DHT22;22591;48.314;11.562;2022-08-01T05:58:01;21.40;92.20
36586;DHT22;22591;48.314;11.562;2022-08-01T06:00:26;21.50;92.00
36586;DHT22;22591;48.314;11.562;2022-08-01T06:02:52;21.60;91.80
36586;DHT22;22591;48.314;11.562;2022-08-01T06:05:18;21.70;91.50
36586;DHT22;22591;48.314;11.562;2022-08-01T06:07:43;21.80;91.50
36586;DHT22;22591;48.314;11.562;2022-08-01T06:10:09;21.90;91.00
36586;DHT22;22591;48.314;11.562;2022-08-01T06:12:35;22.00;90.90
36586;DHT22;22591;48.314;11.562;2022-08-01T06:15:03;22.10;90.90
36586;DHT22;22591;48.314;11.562;2022-08-01T06:17:28;22.30;90.60
36586;DHT22;22591;48.314;11.562;2022-08-01T06:19:54;22.30;90.30
36586;DHT22;22591;48.314;11.562;2022-08-01T06:22:21;22.30;90.30
36586;DHT22;22591;48.314;11.562;2022-08-01T06:24:46;22.40;90.10
36586;DHT22;22591;48.314;11.562;2022-08-01T06:27:12;22.50;90.10
36586;DHT22;22591;48.314;11.562;2022-08-01T06:29:38;22.50;89.80
36586;DHT22;22591;48.314;11.562;2022-08-01T06:32:03;22.60;89.60
36586;DHT22;22591;48.314;11.562;2022-08-01T06:34:29;22.80;89.10
36586;DHT22;22591;48.314;11.562;2022-08-01T06:36:55;23.00;89.10
36586;DHT22;22591;48.314;11.562;2022-08-01T06:39:20;23.10;88.30
36586;DHT22;22591;48.314;11.562;2022-08-01T06:41:46;23.50;86.50
36586;DHT22;22591;48.314;11.562;2022-08-01T06:44:12;23.70;86.10
36586;DHT22;22591;48.314;11.562;2022-08-01T06:46:38;23.60;85.50
36586;DHT22;22591;48.314;11.562;2022-08-01T06:49:04;23.70;85.70
36586;DHT22;22591;48.314;11.562;2022-08-01T06:51:29;23.60;85.90
36586;DHT22;22591;48.314;11.562;2022-08-01T06:53:55;23.60;85.90
36586;DHT22;22591;48.314;11.562;2022-08-01T06:56:21;23.50;86.10
36586;DHT22;22591;48.314;11.562;2022-08-01T06:58:46;23.50;86.80
36586;DHT22;22591;48.314;11.562;2022-08-01T07:01:12;23.50;86.80
36586;DHT22;22591;48.314;11.562;2022-08-01T07:03:38;23.60;85.50
36586;DHT22;22591;48.314;11.562;2022-08-01T07:06:03;23.60;86.30
36586;DHT22;22591;48.314;11.562;2022-08-01T07:08:29;23.60;86.10
36586;DHT22;22591;48.314;11.562;2022-08-01T07:10:55;23.70;85.70
36586;DHT22;22591;48.314;11.562;2022-08-01T07:13:25;23.70;85.40
36586;DHT22;22591;48.314;11.562;2022-08-01T07:15:51;23.80;85.20
36586;DHT22;22591;48.314;11.562;2022-08-01T07:18:18;23.80;84.70
36586;DHT22;22591;48.314;11.562;2022-08-01T07:20:43;23.80;84.90
36586;DHT22;22591;48.314;11.562;2022-08-01T07:23:11;23.90;85.00
36586;DHT22;22591;48.314;11.562;2022-08-01T07:25:37;24.00;84.00
36586;DHT22;22591;48.314;11.562;2022-08-01T07:28:03;24.00;84.30
36586;DHT22;22591;48.314;11.562;2022-08-01T07:30:29;24.00;83.80
36586;DHT22;22591;48.314;11.562;2022-08-01T07:32:54;23.90;84.60
36586;DHT22;22591;48.314;11.562;2022-08-01T07:35:20;24.00;83.90
36586;DHT22;22591;48.314;11.562;2022-08-01T07:37:47;24.00;83.80
36586;DHT22;22591;48.314;11.562;2022-08-01T07:40:13;24.00;83.70
36586;DHT22;22591;48.314;11.562;2022-08-01T07:42:38;24.10;83.80
36586;DHT22;22591;48.314;11.562;2022-08-01T07:45:09;24.10;83.50
36586;DHT22;22591;48.314;11.562;2022-08-01T07:47:35;24.00;84.30
36586;DHT22;22591;48.314;11.562;2022-08-01T07:50:04;24.00;84.10
36586;DHT22;22591;48.314;11.562;2022-08-01T07:52:30;24.00;83.80
36586;DHT22;22591;48.314;11.562;2022-08-01T07:54:56;24.20;83.40
36586;DHT22;22591;48.314;11.562;2022-08-01T07:57:23;24.30;83.60
36586;DHT22;22591;48.314;11.562;2022-08-01T07:59:49;24.40;83.30
36586;DHT22;22591;48.314;11.562;2022-08-01T08:02:15;24.50;82.30
36586;DHT22;22591;48.314;11.562;2022-08-01T08:04:41;24.40;82.30
36586;DHT22;22591;48.314;11.562;2022-08-01T08:07:07;24.40;83.10
36586;DHT22;22591;48.314;11.562;2022-08-01T08:09:32;24.60;82.80
36586;DHT22;22591;48.314;11.562;2022-08-01T08:11:58;24.60;82.70
36586;DHT22;22591;48.314;11.562;2022-08-01T08:14:23;24.60;82.40
36586;DHT22;22591;48.314;11.562;2022-08-01T08:16:50;24.70;82.20
36586;DHT22;22591;48.314;11.562;2022-08-01T08:19:15;24.80;81.90
36586;DHT22;22591;48.314;11.562;2022-08-01T08:21:42;24.80;81.50
36586;DHT22;22591;48.314;11.562;2022-08-01T08:24:09;24.80;81.90
36586;DHT22;22591;48.314;11.562;2022-08-01T08:26:57;24.80;82.30
36586;DHT22;22591;48.314;11.562;2022-08-01T08:29:24;24.90;81.50
36586;DHT22;22591;48.314;11.562;2022-08-01T08:31:52;24.90;81.50
36586;DHT22;22591;48.314;11.562;2022-08-01T08:34:17;25.00;80.80
36586;DHT22;22591;48.314;11.562;2022-08-01T08:36:43;25.00;80.80
36586;DHT22;22591;48.314;11.562;2022-08-01T08:39:09;25.10;80.30
36586;DHT22;22591;48.314;11.562;2022-08-01T08:41:35;25.30;80.00
36586;DHT22;22591;48.314;11.562;2022-08-01T08:44:05;25.30;79.70
36586;DHT22;22591;48.314;11.562;2022-08-01T08:46:31;25.40;79.70
36586;DHT22;22591;48.314;11.562;2022-08-01T08:49:02;25.50;78.90
36586;DHT22;22591;48.314;11.562;2022-08-01T08:51:30;25.50;79.30
36586;DHT22;22591;48.314;11.562;2022-08-01T08:53:56;25.50;78.00
36586;DHT22;22591;48.314;11.562;2022-08-01T08:56:24;25.50;78.20
36586;DHT22;22591;48.314;11.562;2022-08-01T08:58:51;25.50;77.60
36586;DHT22;22591;48.314;11.562;2022-08-01T09:01:17;25.60;77.90
36586;DHT22;22591;48.314;11.562;2022-08-01T09:03:43;25.60;78.20
36586;DHT22;22591;48.314;11.562;2022-08-01T09:06:10;25.50;77.70
36586;DHT22;22591;48.314;11.562;2022-08-01T09:08:37;25.60;78.30
36586;DHT22;22591;48.314;11.562;2022-08-01T09:11:03;25.90;77.00
36586;DHT22;22591;48.314;11.562;2022-08-01T09:13:29;26.00;76.10
36586;DHT22;22591;48.314;11.562;2022-08-01T09:15:56;26.20;75.90
36586;DHT22;22591;48.314;11.562;2022-08-01T09:18:37;26.00;75.50
36586;DHT22;22591;48.314;11.562;2022-08-01T09:23:32;26.20;75.20
36586;DHT22;22591;48.314;11.562;2022-08-01T09:25:58;26.50;75.20
36586;DHT22;22591;48.314;11.562;2022-08-01T09:28:28;26.50;73.70
36586;DHT22;22591;48.314;11.562;2022-08-01T09:30:56;26.50;73.90
36586;DHT22;22591;48.314;11.562;2022-08-01T09:33:21;26.50;74.30
36586;DHT22;22591;48.314;11.562;2022-08-01T09:35:55;26.60;74.60
36586;DHT22;22591;48.314;11.562;2022-08-01T09:38:24;26.90;72.80
36586;DHT22;22591;48.314;11.562;2022-08-01T09:40:59;27.00;73.40
36586;DHT22;22591;48.314;11.562;2022-08-01T09:43:29;27.10;72.40
36586;DHT22;22591;48.314;11.562;2022-08-01T09:45:58;27.30;72.20
36586;DHT22;22591;48.314;11.562;2022-08-01T09:48:25;27.30;72.30
36586;DHT22;22591;48.314;11.562;2022-08-01T09:50:52;27.30;71.90
36586;DHT22;22591;48.314;11.562;2022-08-01T09:53:18;27.20;71.50
36586;DHT22;22591;48.314;11.562;2022-08-01T09:55:44;26.90;71.10
36586;DHT22;22591;48.314;11.562;2022-08-01T09:58:10;26.50;71.70
36586;DHT22;22591;48.314;11.562;2022-08-01T10:00:37;26.60;72.50
36586;DHT22;22591;48.314;11.562;2022-08-01T10:03:20;26.90;72.50
36586;DHT22;22591;48.314;11.562;2022-08-01T10:05:46;27.30;72.60
36586;DHT22;22591;48.314;11.562;2022-08-01T10:08:13;27.60;71.80
36586;DHT22;22591;48.314;11.562;2022-08-01T10:10:39;28.00;71.60
36586;DHT22;22591;48.314;11.562;2022-08-01T10:13:06;28.50;70.00
36586;DHT22;22591;48.314;11.562;2022-08-01T10:15:32;28.60;69.70
36586;DHT22;22591;48.314;11.562;2022-08-01T10:18:01;28.50;67.10
36586;DHT22;22591;48.314;11.562;2022-08-01T10:20:31;27.90;67.90
36586;DHT22;22591;48.314;11.562;2022-08-01T10:23:04;27.90;68.80
36586;DHT22;22591;48.314;11.562;2022-08-01T10:25:34;28.20;68.40
36586;DHT22;22591;48.314;11.562;2022-08-01T10:28:07;28.40;67.90
36586;DHT22;22591;48.314;11.562;2022-08-01T10:30:35;28.50;67.20
36586;DHT22;22591;48.314;11.562;2022-08-01T10:33:02;28.70;67.20
36586;DHT22;22591;48.314;11.562;2022-08-01T10:35:28;28.60;65.90
36586;DHT22;22591;48.314;11.562;2022-08-01T10:37:54;28.10;67.00
36586;DHT22;22591;48.314;11.562;2022-08-01T10:40:23;28.10;67.00
36586;DHT22;22591;48.314;11.562;2022-08-01T10:42:49;28.10;66.70
36586;DHT22;22591;48.314;11.562;2022-08-01T10:45:17;28.10;66.50
36586;DHT22;22591;48.314;11.562;2022-08-01T10:47:49;27.90;66.80
36586;DHT22;22591;48.314;11.562;2022-08-01T10:50:37;28.10;65.90
36586;DHT22;22591;48.314;11.562;2022-08-01T10:53:17;28.00;65.90
36586;DHT22;22591;48.314;11.562;2022-08-01T10:55:52;28.20;64.20
36586;DHT22;22591;48.314;11.562;2022-08-01T11:01:23;28.10;63.80
36586;DHT22;22591;48.314;11.562;2022-08-01T11:06:24;28.00;63.60
36586;DHT22;22591;48.314;11.562;2022-08-01T11:08:53;28.10;64.20
36586;DHT22;22591;48.314;11.562;2022-08-01T11:11:20;28.30;64.80
36586;DHT22;22591;48.314;11.562;2022-08-01T11:14:01;28.50;64.30
36586;DHT22;22591;48.314;11.562;2022-08-01T11:16:28;28.90;62.60
36586;DHT22;22591;48.314;11.562;2022-08-01T11:18:54;29.10;61.70
36586;DHT22;22591;48.314;11.562;2022-08-01T11:21:20;29.10;62.40
36586;DHT22;22591;48.314;11.562;2022-08-01T11:23:50;29.10;62.10
36586;DHT22;22591;48.314;11.562;2022-08-01T11:26:19;28.90;61.40
36586;DHT22;22591;48.314;11.562;2022-08-01T11:28:46;28.60;60.60
36586;DHT22;22591;48.314;11.562;2022-08-01T11:31:32;28.50;61.60
36586;DHT22;22591;48.314;11.562;2022-08-01T11:33:58;28.50;61.10
36586;DHT22;22591;48.314;11.562;2022-08-01T11:36:24;28.50;61.90
36586;DHT22;22591;48.314;11.562;2022-08-01T11:41:32;28.40;61.60
36586;DHT22;22591;48.314;11.562;2022-08-01T11:44:20;28.40;61.20
36586;DHT22;22591;48.314;11.562;2022-08-01T11:46:54;28.50;60.90
36586;DHT22;22591;48.314;11.562;2022-08-01T11:57:07;29.80;59.20
36586;DHT22;22591;48.314;11.562;2022-08-01T11:59:42;30.20;58.10
36586;DHT22;22591;48.314;11.562;2022-08-01T12:02:31;30.40;58.20
36586;DHT22;22591;48.314;11.562;2022-08-01T12:05:03;31.00;56.20
36586;DHT22;22591;48.314;11.562;2022-08-01T12:07:30;31.20;55.10
36586;DHT22;22591;48.314;11.562;2022-08-01T12:10:05;31.50;54.70
36586;DHT22;22591;48.314;11.562;2022-08-01T12:12:32;31.50;54.50
36586;DHT22;22591;48.314;11.562;2022-08-01T12:15:07;31.20;53.40
36586;DHT22;22591;48.314;11.562;2022-08-01T12:17:40;30.50;54.40
36586;DHT22;22591;48.314;11.562;2022-08-01T12:20:11;30.30;55.30
36586;DHT22;22591;48.314;11.562;2022-08-01T12:22:37;29.90;55.40
36586;DHT22;22591;48.314;11.562;2022-08-01T12:27:32;29.20;57.10
36586;DHT22;22591;48.314;11.562;2022-08-01T12:29:58;29.30;57.00
36586;DHT22;22591;48.314;11.562;2022-08-01T12:32:30;29.50;57.00
36586;DHT22;22591;48.314;11.562;2022-08-01T12:35:08;29.80;55.70
36586;DHT22;22591;48.314;11.562;2022-08-01T12:37:38;30.00;55.50
36586;DHT22;22591;48.314;11.562;2022-08-01T12:40:30;29.90;56.20
36586;DHT22;22591;48.314;11.562;2022-08-01T12:43:20;29.60;56.10
36586;DHT22;22591;48.314;11.562;2022-08-01T12:45:49;29.50;56.50
36586;DHT22;22591;48.314;11.562;2022-08-01T12:48:17;29.40;55.90
36586;DHT22;22591;48.314;11.562;2022-08-01T12:50:45;29.60;55.80
36586;DHT22;22591;48.314;11.562;2022-08-01T12:53:13;29.50;56.30
36586;DHT22;22591;48.314;11.562;2022-08-01T12:55:55;29.30;56.40
36586;DHT22;22591;48.314;11.562;2022-08-01T12:58:21;28.90;56.90
36586;DHT22;22591;48.314;11.562;2022-08-01T13:00:48;28.70;57.20
36586;DHT22;22591;48.314;11.562;2022-08-01T13:03:16;28.40;57.70
36586;DHT22;22591;48.314;11.562;2022-08-01T13:05:47;28.20;58.60
36586;DHT22;22591;48.314;11.562;2022-08-01T13:08:33;28.10;59.20
36586;DHT22;22591;48.314;11.562;2022-08-01T13:11:07;28.50;59.00
36586;DHT22;22591;48.314;11.562;2022-08-01T13:13:41;29.00;57.60
36586;DHT22;22591;48.314;11.562;2022-08-01T13:16:08;29.30;57.40
36586;DHT22;22591;48.314;11.562;2022-08-01T13:18:35;29.40;56.70
36586;DHT22;22591;48.314;11.562;2022-08-01T13:21:17;29.60;56.90
36586;DHT22;22591;48.314;11.562;2022-08-01T13:24:06;30.00;56.30
36586;DHT22;22591;48.314;11.562;2022-08-01T13:26:47;30.40;54.90
36586;DHT22;22591;48.314;11.562;2022-08-01T13:29:21;30.60;53.90
36586;DHT22;22591;48.314;11.562;2022-08-01T13:31:49;30.70;53.50
36586;DHT22;22591;48.314;11.562;2022-08-01T13:34:15;30.80;52.80
36586;DHT22;22591;48.314;11.562;2022-08-01T13:36:41;30.90;53.00
36586;DHT22;22591;48.314;11.562;2022-08-01T13:39:07;30.90;52.80
36586;DHT22;22591;48.314;11.562;2022-08-01T13:41:52;30.70;53.40
36586;DHT22;22591;48.314;11.562;2022-08-01T13:44:17;30.40;53.90
36586;DHT22;22591;48.314;11.562;2022-08-01T13:46:44;30.10;53.70
36586;DHT22;22591;48.314;11.562;2022-08-01T13:49:11;29.90;54.30
36586;DHT22;22591;48.314;11.562;2022-08-01T13:51:37;29.70;54.90
36586;DHT22;22591;48.314;11.562;2022-08-01T13:54:04;29.50;55.30
36586;DHT22;22591;48.314;11.562;2022-08-01T13:56:30;29.50;55.90
36586;DHT22;22591;48.314;11.562;2022-08-01T13:58:56;29.20;56.20
36586;DHT22;22591;48.314;11.562;2022-08-01T14:01:23;28.90;57.00
36586;DHT22;22591;48.314;11.562;2022-08-01T14:03:49;28.50;58.50
36586;DHT22;22591;48.314;11.562;2022-08-01T14:06:17;28.10;59.50
36586;DHT22;22591;48.314;11.562;2022-08-01T14:08:44;27.90;60.10
36586;DHT22;22591;48.314;11.562;2022-08-01T14:11:09;27.70;60.90
36586;DHT22;22591;48.314;11.562;2022-08-01T14:13:35;27.60;61.30
36586;DHT22;22591;48.314;11.562;2022-08-01T14:16:04;27.30;63.00
36586;DHT22;22591;48.314;11.562;2022-08-01T14:18:29;27.00;64.50
36586;DHT22;22591;48.314;11.562;2022-08-01T14:20:55;26.70;65.90
36586;DHT22;22591;48.314;11.562;2022-08-01T14:23:20;26.70;66.40
36586;DHT22;22591;48.314;11.562;2022-08-01T14:25:46;26.50;67.30
36586;DHT22;22591;48.314;11.562;2022-08-01T14:28:11;26.40;67.60
36586;DHT22;22591;48.314;11.562;2022-08-01T14:30:37;26.40;66.80
36586;DHT22;22591;48.314;11.562;2022-08-01T14:33:03;26.40;67.30
36586;DHT22;22591;48.314;11.562;2022-08-01T14:35:29;26.30;66.40
36586;DHT22;22591;48.314;11.562;2022-08-01T14:37:55;26.20;67.10
36586;DHT22;22591;48.314;11.562;2022-08-01T14:40:20;26.10;67.80
36586;DHT22;22591;48.314;11.562;2022-08-01T14:42:46;25.90;68.60
36586;DHT22;22591;48.314;11.562;2022-08-01T14:45:12;25.80;68.80
36586;DHT22;22591;48.314;11.562;2022-08-01T14:47:39;25.60;69.00
36586;DHT22;22591;48.314;11.562;2022-08-01T14:50:07;25.70;70.20
36586;DHT22;22591;48.314;11.562;2022-08-01T14:52:34;25.60;75.60
36586;DHT22;22591;48.314;11.562;2022-08-01T14:55:00;25.00;82.20
36586;DHT22;22591;48.314;11.562;2022-08-01T14:57:26;24.80;85.80
36586;DHT22;22591;48.314;11.562;2022-08-01T14:59:53;24.70;88.60
36586;DHT22;22591;48.314;11.562;2022-08-01T15:02:18;24.20;89.50
36586;DHT22;22591;48.314;11.562;2022-08-01T15:04:45;23.10;92.90
36586;DHT22;22591;48.314;11.562;2022-08-01T15:07:11;22.30;95.80
36586;DHT22;22591;48.314;11.562;2022-08-01T15:09:37;22.00;96.30
36586;DHT22;22591;48.314;11.562;2022-08-01T15:12:03;22.00;97.30
36586;DHT22;22591;48.314;11.562;2022-08-01T15:14:28;22.10;99.90
36586;DHT22;22591;48.314;11.562;2022-08-01T15:17:17;22.20;99.90
36586;DHT22;22591;48.314;11.562;2022-08-01T15:19:44;22.40;99.90
36586;DHT22;22591;48.314;11.562;2022-08-01T15:22:10;22.60;99.30
36586;DHT22;22591;48.314;11.562;2022-08-01T15:24:36;22.60;99.90
36586;DHT22;22591;48.314;11.562;2022-08-01T15:27:01;22.60;99.80
36586;DHT22;22591;48.314;11.562;2022-08-01T15:29:27;22.70;99.50
36586;DHT22;22591;48.314;11.562;2022-08-01T15:31:53;22.70;99.90
36586;DHT22;22591;48.314;11.562;2022-08-01T15:34:18;22.70;99.90
36586;DHT22;22591;48.314;11.562;2022-08-01T15:36:44;22.80;99.90
36586;DHT22;22591;48.314;11.562;2022-08-01T15:39:10;22.90;99.90
36586;DHT22;22591;48.314;11.562;2022-08-01T15:41:36;23.00;99.70
36586;DHT22;22591;48.314;11.562;2022-08-01T15:44:02;23.10;98.70
36586;DHT22;22591;48.314;11.562;2022-08-01T15:46:28;23.00;98.60
36586;DHT22;22591;48.314;11.562;2022-08-01T15:48:53;23.00;98.30
36586;DHT22;22591;48.314;11.562;2022-08-01T15:51:19;23.00;99.20
36586;DHT22;22591;48.314;11.562;2022-08-01T15:53:45;22.90;98.90
36586;DHT22;22591;48.314;11.562;2022-08-01T15:56:12;22.80;99.90
36586;DHT22;22591;48.314;11.562;2022-08-01T15:58:38;22.50;99.10